Time;durP1;ratioP1;P1;durP2;ratioP2;P2;SDS_P1;SDS_P2;PMS_P1;PMS_P2;Temp;Humidity;BMP_temperature;BMP_pressure;BME280_temperature;BME280_humidity;BME280_pressure;Samples;Min_cycle;Max_cycle;Signal;HPM_P1;HPM_P2
2021/10/16 00:01:15;;;;;;;10.70;5.70;;;;;;;10.14;75.91;100140.65;139825;1192;108411;-79
2021/10/16 00:04:20;;;;;;;9.20;5.50;;;;;;;10.15;75.93;100140.23;139324;1192;108459;-79
2021/10/16 00:07:25;;;;;;;12.20;6.00;;;;;;;10.14;76.01;100148.71;139110;1193;108252;-79
2021/10/16 00:10:31;;;;;;;12.00;5.70;;;;;;;10.15;76.05;100153.71;139085;1191;108482;-79
2021/10/16 00:13:36;;;;;;;8.50;6.00;;;;;;;10.14;76.01;100152.08;139159;1193;107388;-81
2021/10/16 00:16:42;;;;;;;10.60;6.30;;;;;;;10.13;76.22;100153.44;139276;1193;108528;-78
2021/10/16 00:19:47;;;;;;;9.40;6.00;;;;;;;10.13;76.10;100154.64;139083;1192;108643;-86
2021/10/16 00:22:53;;;;;;;11.00;6.40;;;;;;;10.09;76.40;100155.46;139020;1193;107233;-86
2021/10/16 00:25:58;;;;;;;11.00;5.80;;;;;;;10.05;76.62;100155.22;139010;1192;106191;-85
2021/10/16 00:29:04;;;;;;;8.90;6.00;;;;;;;10.06;76.39;100154.80;139093;1193;108481;-87
2021/10/16 00:32:09;;;;;;;8.50;5.60;;;;;;;10.08;76.43;100151.75;139045;1192;108546;-85
2021/10/16 00:35:15;;;;;;;12.50;6.00;;;;;;;10.06;76.37;100153.23;138823;1192;107480;-84
2021/10/16 00:38:20;;;;;;;13.30;5.90;;;;;;;10.04;76.84;100159.98;139014;1192;108216;-84
2021/10/16 00:41:25;;;;;;;7.90;5.00;;;;;;;9.96;76.40;100161.10;138792;1192;108625;-83
2021/10/16 00:44:31;;;;;;;8.90;5.20;;;;;;;9.91;76.60;100166.11;139017;1193;108592;-85
2021/10/16 00:47:36;;;;;;;10.30;5.70;;;;;;;9.86;76.76;100166.06;138995;1183;108554;-85
2021/10/16 00:50:42;;;;;;;10.20;5.30;;;;;;;9.92;76.52;100170.83;139017;1192;108550;-85
2021/10/16 00:53:47;;;;;;;9.80;4.90;;;;;;;9.94;76.40;100173.61;138986;1192;107258;-85
2021/10/16 00:56:55;;;;;;;9.10;5.40;;;;;;;9.95;76.53;100172.25;139048;1192;108517;-83
2021/10/16 01:00:01;;;;;;;8.80;4.80;;;;;;;9.91;76.47;100169.14;138761;1192;108560;-84
2021/10/16 01:03:07;;;;;;;8.40;4.20;;;;;;;9.88;76.65;100175.23;138811;1192;108418;-84
2021/10/16 01:06:13;;;;;;;10.60;5.00;;;;;;;9.87;76.50;100175.05;138746;1192;107389;-85
2021/10/16 01:09:19;;;;;;;9.10;5.00;;;;;;;9.85;76.34;100177.36;138781;1192;108621;-85
2021/10/16 01:12:25;;;;;;;7.10;4.30;;;;;;;9.85;76.39;100172.58;138657;1192;108643;-84
2021/10/16 01:15:31;;;;;;;8.50;4.60;;;;;;;9.87;76.28;100176.45;138772;1192;108837;-84
2021/10/16 01:18:37;;;;;;;8.60;4.80;;;;;;;9.91;76.51;100180.98;138770;1193;108506;-85
2021/10/16 01:21:45;;;;;;;8.10;4.30;;;;;;;9.91;76.28;100181.36;139134;1193;108663;-85
2021/10/16 01:24:52;;;;;;;9.00;4.30;;;;;;;9.90;76.21;100183.20;139069;1192;108386;-85
2021/10/16 01:27:58;;;;;;;8.30;4.80;;;;;;;9.93;76.40;100178.85;139046;1192;106989;-83
2021/10/16 01:31:03;;;;;;;8.70;4.40;;;;;;;9.97;76.55;100175.45;139008;1192;107515;-85
2021/10/16 01:34:09;;;;;;;10.70;4.90;;;;;;;9.94;76.25;100181.98;138999;1194;107868;-84
2021/10/16 01:37:14;;;;;;;7.60;4.00;;;;;;;9.93;76.49;100180.09;138970;1192;108657;-82
2021/10/16 01:40:22;;;;;;;9.00;3.80;;;;;;;9.98;76.06;100181.54;138979;1194;108783;-83
2021/10/16 01:43:29;;;;;;;9.00;4.10;;;;;;;10.02;76.22;100181.39;139040;1192;108536;-83
2021/10/16 01:46:36;;;;;;;9.00;4.50;;;;;;;10.06;76.19;100183.65;139238;1193;108470;-80
2021/10/16 01:49:41;;;;;;;9.20;4.10;;;;;;;10.08;76.18;100187.00;139110;1192;108468;-79
2021/10/16 01:52:47;;;;;;;10.60;4.40;;;;;;;10.08;75.97;100191.63;138802;1184;108399;-80
2021/10/16 01:55:52;;;;;;;9.70;4.10;;;;;;;10.08;75.80;100193.20;139538;1192;108564;-80
2021/10/16 01:59:15;;;;;;;8.60;4.20;;;;;;;10.05;76.09;100193.87;139981;1193;108590;-79
2021/10/16 02:02:41;;;;;;;9.20;3.40;;;;;;;9.98;76.11;100190.77;139221;1196;108178;-80
2021/10/16 02:06:05;;;;;;;8.80;3.90;;;;;;;9.99;76.00;100197.08;138928;1192;107282;-79
2021/10/16 02:09:13;;;;;;;9.80;3.70;;;;;;;10.02;75.91;100199.34;138966;1192;108466;-80
2021/10/16 02:12:19;;;;;;;7.10;3.60;;;;;;;10.07;75.98;100202.19;139012;1188;108477;-80
2021/10/16 02:15:26;;;;;;;7.10;3.80;;;;;;;10.07;75.78;100207.35;139318;1192;108485;-80
2021/10/16 02:18:49;;;;;;;5.90;3.30;;;;;;;10.05;75.63;100213.23;139045;1193;107518;-80
2021/10/16 02:21:56;;;;;;;7.20;3.00;;;;;;;10.00;75.72;100212.59;138887;1193;108459;-81
2021/10/16 02:25:03;;;;;;;6.30;3.20;;;;;;;10.02;75.57;100220.06;138989;1192;108620;-80
2021/10/16 02:28:09;;;;;;;9.80;3.50;;;;;;;10.01;75.54;100224.06;138745;1192;108361;-81
2021/10/16 02:31:16;;;;;;;5.90;3.70;;;;;;;10.00;75.57;100226.34;139011;1199;108363;-81
2021/10/16 02:34:22;;;;;;;7.20;3.50;;;;;;;10.03;75.44;100229.71;139020;1192;108552;-81
2021/10/16 02:37:31;;;;;;;6.80;3.30;;;;;;;10.01;75.59;100232.96;138868;1194;108419;-80
2021/10/16 02:40:36;;;;;;;8.00;3.40;;;;;;;10.00;75.52;100230.35;139009;1193;108600;-80
2021/10/16 02:43:43;;;;;;;6.80;3.00;;;;;;;9.98;75.59;100233.05;138783;1192;108602;-80
2021/10/16 02:46:49;;;;;;;7.40;2.90;;;;;;;9.94;75.24;100241.98;138877;1192;108467;-81
2021/10/16 02:49:55;;;;;;;8.00;3.40;;;;;;;9.85;75.36;100246.23;138768;1192;108578;-81
2021/10/16 02:53:00;;;;;;;6.50;3.20;;;;;;;9.89;75.76;100248.38;138802;1192;108451;-79
2021/10/16 02:56:06;;;;;;;9.30;3.60;;;;;;;9.95;75.63;100242.98;138784;1192;108529;-81
2021/10/16 02:59:11;;;;;;;9.00;3.60;;;;;;;9.97;75.64;100242.98;138917;1193;107046;-80
2021/10/16 03:02:30;;;;;;;4.90;3.10;;;;;;;9.94;75.40;100245.06;138884;1193;108486;-81
2021/10/16 03:05:35;;;;;;;8.30;3.10;;;;;;;9.92;75.14;100243.79;138899;1192;108412;-81
2021/10/16 03:08:46;;;;;;;7.90;3.20;;;;;;;9.91;75.30;100249.60;138927;1193;108543;-81
2021/10/16 03:11:53;;;;;;;10.10;3.10;;;;;;;9.90;75.37;100242.38;138844;1192;108477;-82
2021/10/16 03:14:59;;;;;;;7.70;3.20;;;;;;;9.93;75.20;100243.18;138872;1192;108697;-82
2021/10/16 03:18:04;;;;;;;9.00;4.00;;;;;;;9.93;75.47;100243.34;138872;1192;108402;-81
2021/10/16 03:21:10;;;;;;;10.80;3.70;;;;;;;9.96;75.26;100246.40;138891;1192;107822;-81
2021/10/16 03:24:16;;;;;;;12.00;3.90;;;;;;;9.94;75.16;100253.55;139104;1192;108417;-81
2021/10/16 03:27:21;;;;;;;7.70;3.30;;;;;;;9.90;75.18;100253.83;138896;1192;108592;-81
2021/10/16 03:30:27;;;;;;;7.80;3.40;;;;;;;9.89;75.24;100253.56;138797;1192;108485;-81
2021/10/16 03:33:32;;;;;;;8.00;4.20;;;;;;;9.87;74.91;100256.58;138925;1193;108447;-79
2021/10/16 03:36:38;;;;;;;8.20;3.50;;;;;;;9.88;74.74;100255.79;138767;1192;108458;-82
2021/10/16 03:39:44;;;;;;;128.30;41.30;;;;;;;9.91;75.01;100259.20;138943;1192;108819;-83
2021/10/16 03:42:49;;;;;;;94.20;34.50;;;;;;;9.92;75.03;100265.88;138950;1192;108371;-84
2021/10/16 03:45:57;;;;;;;92.10;31.70;;;;;;;9.93;74.84;100267.52;139011;1192;108497;-84
2021/10/16 03:49:03;;;;;;;94.80;24.90;;;;;;;9.90;74.90;100274.24;138870;1192;108634;-85
2021/10/16 03:52:09;;;;;;;115.80;29.80;;;;;;;9.90;74.96;100273.71;138777;1192;108600;-82
2021/10/16 03:55:15;;;;;;;56.00;16.90;;;;;;;9.93;74.95;100277.65;138855;1192;108332;-84
2021/10/16 03:58:20;;;;;;;136.60;42.30;;;;;;;9.96;75.02;100277.71;138999;1192;108444;-81
2021/10/16 04:01:26;;;;;;;106.10;33.30;;;;;;;9.98;74.97;100273.95;139111;1183;108378;-79
2021/10/16 04:04:33;;;;;;;275.20;101.30;;;;;;;10.03;74.77;100277.06;138990;1192;106987;-79
2021/10/16 04:07:38;;;;;;;130.40;58.00;;;;;;;10.02;74.83;100277.25;138651;1192;108558;-79
2021/10/16 04:10:45;;;;;;;234.10;117.60;;;;;;;10.03;74.85;100277.73;138833;1192;108412;-80
2021/10/16 04:13:50;;;;;;;240.60;115.80;;;;;;;10.03;75.21;100277.20;138852;1192;108473;-79
2021/10/16 04:16:56;;;;;;;103.60;54.20;;;;;;;10.03;74.89;100281.98;138791;1192;108587;-78
2021/10/16 04:20:01;;;;;;;359.20;159.00;;;;;;;10.05;74.90;100280.95;138868;1192;108533;-79
2021/10/16 04:23:08;;;;;;;404.50;181.70;;;;;;;10.07;74.87;100285.54;138688;1192;108805;-80
2021/10/16 04:26:17;;;;;;;575.40;299.10;;;;;;;10.04;74.41;100286.86;138851;1191;108548;-81
2021/10/16 04:29:25;;;;;;;100.50;38.90;;;;;;;9.96;74.46;100291.40;138967;1192;107360;-80
2021/10/16 04:32:46;;;;;;;998.90;522.00;;;;;;;9.88;74.76;100292.34;138990;1192;107384;-81
2021/10/16 04:35:51;;;;;;;449.10;202.90;;;;;;;9.86;74.73;100295.27;138831;1192;107035;-79
2021/10/16 04:38:58;;;;;;;293.40;122.60;;;;;;;9.84;74.94;100294.66;138884;1192;108472;-79
2021/10/16 04:42:05;;;;;;;476.30;268.30;;;;;;;9.84;74.39;100299.66;138816;1192;109351;-78
2021/10/16 04:45:12;;;;;;;538.60;338.50;;;;;;;9.88;74.67;100298.96;138663;1193;106949;-78
2021/10/16 04:48:17;;;;;;;639.90;397.90;;;;;;;9.92;74.52;100301.74;138903;1192;108381;-80
2021/10/16 04:51:24;;;;;;;267.90;138.40;;;;;;;9.94;74.40;100304.95;138748;1192;108522;-78
2021/10/16 04:54:29;;;;;;;198.70;104.30;;;;;;;9.88;74.02;100303.02;139126;1192;108467;-78
2021/10/16 04:57:36;;;;;;;72.40;42.10;;;;;;;9.79;73.83;100311.45;138769;1192;108389;-78
2021/10/16 05:00:42;;;;;;;15.40;9.90;;;;;;;9.69;74.08;100316.02;138719;1192;107299;-77
2021/10/16 05:03:50;;;;;;;12.90;6.70;;;;;;;9.58;73.93;100321.35;138741;1192;108619;-78
2021/10/16 05:06:56;;;;;;;12.70;5.10;;;;;;;9.48;74.38;100316.05;138762;1192;108463;-80
2021/10/16 05:10:03;;;;;;;10.70;5.00;;;;;;;9.44;74.32;100319.27;138795;1191;108426;-80
2021/10/16 05:13:09;;;;;;;11.40;5.50;;;;;;;9.42;74.39;100317.08;138819;1192;108522;-79
2021/10/16 05:16:15;;;;;;;11.80;6.60;;;;;;;9.50;74.51;100315.21;138796;1192;108414;-82
2021/10/16 05:19:22;;;;;;;13.40;5.90;;;;;;;9.54;74.28;100315.08;138730;1192;108618;-84
2021/10/16 05:22:29;;;;;;;9.40;5.30;;;;;;;9.53;74.38;100316.64;139317;1192;108478;-90
2021/10/16 05:25:34;;;;;;;97.00;51.40;;;;;;;9.56;74.36;100324.69;139024;1192;107664;-88
2021/10/16 05:28:40;;;;;;;67.70;35.90;;;;;;;9.57;74.08;100333.98;139211;1192;106165;-86
2021/10/16 05:31:46;;;;;;;289.50;133.10;;;;;;;9.53;74.26;100339.73;138804;1192;108388;-83
2021/10/16 05:34:53;;;;;;;96.70;44.30;;;;;;;9.55;74.32;100343.98;138846;1192;108501;-79
2021/10/16 05:37:59;;;;;;;33.60;15.90;;;;;;;9.55;74.15;100343.81;138656;1192;108372;-80
2021/10/16 05:41:04;;;;;;;16.20;8.30;;;;;;;9.51;74.18;100348.27;138814;1192;108396;-80
2021/10/16 05:44:10;;;;;;;12.50;6.80;;;;;;;9.49;74.15;100350.91;138924;1192;108388;-84
2021/10/16 05:47:16;;;;;;;10.90;5.30;;;;;;;9.46;74.33;100353.14;138707;1192;108407;-81
2021/10/16 05:50:22;;;;;;;9.60;5.30;;;;;;;9.42;74.44;100359.16;138799;1192;108583;-79
2021/10/16 05:53:28;;;;;;;12.50;6.00;;;;;;;9.51;74.54;100359.81;138702;1192;108413;-80
2021/10/16 05:56:34;;;;;;;13.00;5.80;;;;;;;9.62;74.61;100364.27;138743;1192;109341;-81
2021/10/16 05:59:39;;;;;;;12.80;5.90;;;;;;;9.74;74.29;100369.34;138804;1192;108458;-79
2021/10/16 06:02:45;;;;;;;10.40;5.50;;;;;;;9.83;74.52;100372.07;138726;1192;108383;-79
2021/10/16 06:05:57;;;;;;;11.80;6.70;;;;;;;9.88;74.42;100373.60;138638;1192;108638;-76
2021/10/16 06:09:04;;;;;;;12.90;7.50;;;;;;;9.90;74.05;100378.52;138742;1192;107353;-86
2021/10/16 06:12:10;;;;;;;9.20;4.80;;;;;;;9.85;74.34;100383.24;138752;1192;108502;-76
2021/10/16 06:15:16;;;;;;;10.90;4.60;;;;;;;9.86;74.61;100386.75;138657;1192;108653;-77
2021/10/16 06:18:24;;;;;;;11.40;5.80;;;;;;;9.89;74.25;100395.67;138785;1192;108438;-75
2021/10/16 06:21:30;;;;;;;14.00;5.80;;;;;;;9.98;74.26;100401.90;138652;1192;108559;-75
2021/10/16 06:24:35;;;;;;;12.70;5.70;;;;;;;10.05;74.20;100405.71;138670;1192;108400;-75
2021/10/16 06:27:40;;;;;;;30.70;18.70;;;;;;;10.09;74.19;100406.36;138701;1193;108405;-76
2021/10/16 06:30:46;;;;;;;91.60;53.50;;;;;;;10.04;74.03;100414.83;138699;1192;107456;-75
2021/10/16 06:33:51;;;;;;;31.10;15.70;;;;;;;10.01;74.26;100415.42;138627;1192;108385;-76
2021/10/16 06:36:57;;;;;;;161.40;73.20;;;;;;;10.01;74.16;100416.90;138780;1192;108549;-77
2021/10/16 06:40:03;;;;;;;133.40;71.20;;;;;;;10.03;74.13;100419.40;138674;1193;108703;-78
2021/10/16 06:43:15;;;;;;;26.40;13.10;;;;;;;10.08;73.95;100422.65;138693;1192;108665;-75
2021/10/16 06:46:43;;;;;;;16.60;8.60;;;;;;;10.15;73.99;100420.92;138709;1192;108580;-79
2021/10/16 06:49:53;;;;;;;13.70;7.60;;;;;;;10.26;73.92;100424.66;138733;1192;108423;-80
2021/10/16 06:52:58;;;;;;;18.90;12.90;;;;;;;10.30;73.64;100429.46;138783;1192;106990;-81
2021/10/16 06:56:04;;;;;;;35.30;24.80;;;;;;;10.42;74.04;100432.05;139004;1192;109161;-81
2021/10/16 06:59:10;;;;;;;18.10;9.30;;;;;;;10.46;73.33;100428.98;138743;1192;108606;-81
2021/10/16 07:02:17;;;;;;;12.90;6.70;;;;;;;10.39;73.54;100434.98;138976;1192;108481;-81
2021/10/16 07:05:30;;;;;;;12.10;6.80;;;;;;;10.35;73.67;100433.45;138771;1192;108626;-77
2021/10/16 07:08:36;;;;;;;11.80;5.50;;;;;;;10.38;73.08;100439.16;138781;1192;108608;-80
2021/10/16 07:11:42;;;;;;;28.90;15.10;;;;;;;10.41;73.10;100434.88;138806;1192;108451;-80
2021/10/16 07:14:47;;;;;;;24.70;13.40;;;;;;;10.45;73.01;100442.98;138837;1192;108452;-81
2021/10/16 07:17:56;;;;;;;24.60;17.70;;;;;;;10.46;73.00;100445.91;138863;1192;108605;-80
2021/10/16 07:21:02;;;;;;;18.30;11.20;;;;;;;10.49;72.78;100447.92;138844;1192;108581;-82
2021/10/16 07:24:08;;;;;;;11.40;7.30;;;;;;;10.48;72.69;100452.31;138811;1192;108454;-80
2021/10/16 07:27:13;;;;;;;10.70;5.80;;;;;;;10.56;72.87;100450.45;138807;1192;108479;-79
2021/10/16 07:30:19;;;;;;;11.50;5.00;;;;;;;10.69;72.64;100457.96;138854;1192;108285;-84
2021/10/16 07:33:25;;;;;;;94.40;49.40;;;;;;;10.80;71.68;100460.96;138811;1190;108584;-82
2021/10/16 07:36:34;;;;;;;110.20;50.90;;;;;;;10.86;70.99;100461.33;138871;1192;108418;-74
2021/10/16 07:39:40;;;;;;;109.40;51.10;;;;;;;10.91;71.09;100469.69;138675;1192;108394;-76
2021/10/16 07:42:45;;;;;;;31.80;14.00;;;;;;;10.93;70.68;100474.81;138628;1192;108424;-77
2021/10/16 07:45:51;;;;;;;17.00;7.60;;;;;;;10.82;70.32;100474.27;138715;1192;107422;-77
2021/10/16 07:48:56;;;;;;;51.00;21.00;;;;;;;10.76;70.38;100474.66;138647;1192;109027;-77
2021/10/16 07:52:01;;;;;;;96.90;39.90;;;;;;;10.74;71.40;100476.67;138632;1192;108496;-77
2021/10/16 07:55:07;;;;;;;114.70;46.00;;;;;;;10.77;71.11;100483.11;138666;1192;108465;-81
2021/10/16 07:58:13;;;;;;;68.30;24.90;;;;;;;10.79;71.36;100483.47;138763;1186;108199;-77
2021/10/16 08:01:18;;;;;;;41.10;16.90;;;;;;;10.62;69.99;100489.54;138659;1192;108350;-82
2021/10/16 08:04:24;;;;;;;103.20;38.60;;;;;;;10.48;70.70;100494.44;138671;1185;108517;-80
2021/10/16 08:07:29;;;;;;;38.10;15.60;;;;;;;10.42;71.01;100500.20;138767;1195;108411;-80
2021/10/16 08:10:35;;;;;;;25.30;10.10;;;;;;;10.37;71.16;100502.26;138742;1192;108371;-78
2021/10/16 08:13:41;;;;;;;17.80;6.90;;;;;;;10.42;70.97;100505.02;138880;1192;108698;-78
2021/10/16 08:16:46;;;;;;;16.40;6.10;;;;;;;10.43;70.93;100504.55;138604;1192;108548;-77
2021/10/16 08:19:52;;;;;;;13.30;4.80;;;;;;;10.54;70.57;100507.02;138647;1192;108355;-78
2021/10/16 08:22:57;;;;;;;14.70;5.00;;;;;;;10.66;70.14;100506.08;138832;1192;108445;-75
2021/10/16 08:26:03;;;;;;;21.90;8.80;;;;;;;10.79;69.85;100506.55;138645;1192;108361;-77
2021/10/16 08:29:08;;;;;;;30.50;9.30;;;;;;;10.92;70.05;100503.41;138676;1192;108537;-77
2021/10/16 08:32:15;;;;;;;19.30;7.40;;;;;;;11.10;69.26;100510.70;138651;1192;108585;-76
2021/10/16 08:35:20;;;;;;;27.80;9.10;;;;;;;10.97;67.51;100508.64;138749;1192;108394;-85
2021/10/16 08:38:26;;;;;;;25.70;9.00;;;;;;;10.85;68.85;100510.84;138792;1192;108384;-78
2021/10/16 08:41:32;;;;;;;24.50;9.40;;;;;;;10.83;69.45;100511.97;138813;1192;108753;-77
2021/10/16 08:44:38;;;;;;;19.20;7.20;;;;;;;10.97;69.67;100513.38;138738;1192;107887;-77
2021/10/16 08:47:45;;;;;;;41.00;20.00;;;;;;;11.09;69.73;100508.00;138623;1186;108630;-77
2021/10/16 08:50:51;;;;;;;54.30;26.80;;;;;;;11.20;69.51;100513.46;138665;1193;108697;-77
2021/10/16 08:53:56;;;;;;;45.00;17.30;;;;;;;11.36;69.93;100515.98;138652;1192;109417;-77
2021/10/16 08:57:02;;;;;;;35.70;16.00;;;;;;;11.49;68.14;100523.86;138678;1199;108098;-77
2021/10/16 09:00:49;;;;;;;17.40;8.00;;;;;;;11.38;67.90;100525.80;138646;1192;108392;-76
2021/10/16 09:03:55;;;;;;;23.00;10.20;;;;;;;11.15;67.88;100526.77;138633;1192;106930;-76
2021/10/16 09:07:02;;;;;;;20.50;8.70;;;;;;;11.12;68.45;100524.05;138647;1186;108675;-77
2021/10/16 09:13:45;;;;;;;18.20;7.30;;;;;;;10.95;68.16;100534.58;136571;1210;635255;-77
2021/10/16 09:16:54;;;;;;;123.90;52.40;;;;;;;10.85;68.66;100536.44;138570;1196;108430;-77
2021/10/16 09:20:11;;;;;;;46.10;19.40;;;;;;;10.87;68.68;100539.12;139074;1197;108359;-77
2021/10/16 09:23:17;;;;;;;16.50;6.30;;;;;;;10.94;68.51;100540.61;139090;1198;108513;-77
2021/10/16 09:26:23;;;;;;;62.30;27.40;;;;;;;11.00;67.90;100546.22;139083;1190;108427;-78
2021/10/16 09:29:30;;;;;;;20.90;8.40;;;;;;;11.11;68.50;100544.11;139026;1190;108652;-76
2021/10/16 09:32:36;;;;;;;103.30;42.90;;;;;;;11.22;68.05;100542.64;139081;1190;108489;-77
2021/10/16 09:35:42;;;;;;;162.90;68.40;;;;;;;11.30;68.57;100542.19;139005;1190;108371;-78
2021/10/16 09:38:47;;;;;;;303.70;117.90;;;;;;;11.45;68.68;100552.86;138986;1193;108839;-77
2021/10/16 09:41:52;;;;;;;81.10;35.10;;;;;;;11.55;68.00;100554.23;138936;1190;106900;-78
2021/10/16 09:45:01;;;;;;;35.30;16.00;;;;;;;11.61;68.34;100555.95;138979;1192;107285;-77
2021/10/16 09:48:09;;;;;;;16.80;6.00;;;;;;;11.73;67.24;100555.94;139054;1190;108730;-76
2021/10/16 09:51:15;;;;;;;13.50;5.80;;;;;;;11.73;66.38;100556.68;138973;1198;108454;-77
2021/10/16 09:54:21;;;;;;;11.70;7.20;;;;;;;11.74;66.17;100553.04;138981;1191;107250;-77
2021/10/16 09:57:27;;;;;;;14.50;8.20;;;;;;;11.73;67.36;100555.27;138986;1196;108358;-77
2021/10/16 10:00:36;;;;;;;12.30;5.60;;;;;;;11.85;67.73;100562.83;138993;1197;108531;-77
2021/10/16 10:03:46;;;;;;;15.30;6.00;;;;;;;11.96;67.41;100561.55;138950;1190;108438;-76
2021/10/16 10:06:52;;;;;;;15.00;5.30;;;;;;;12.06;67.46;100563.98;138945;1197;108368;-75
2021/10/16 10:10:00;;;;;;;11.20;5.30;;;;;;;12.10;67.60;100561.56;139039;1190;108510;-77
2021/10/16 10:13:05;;;;;;;10.80;5.10;;;;;;;11.96;65.75;100570.16;138989;1191;108446;-75
2021/10/16 10:16:11;;;;;;;10.90;4.70;;;;;;;11.88;66.52;100569.15;138983;1195;108434;-76
2021/10/16 10:19:18;;;;;;;15.60;5.50;;;;;;;11.91;66.24;100571.39;138928;1190;108453;-76
2021/10/16 10:22:24;;;;;;;12.30;4.80;;;;;;;11.99;66.80;100566.25;138983;1190;108360;-76
2021/10/16 10:25:30;;;;;;;10.90;4.80;;;;;;;12.12;66.88;100567.48;138928;1190;108825;-76
2021/10/16 10:29:00;;;;;;;12.40;4.10;;;;;;;12.21;65.92;100571.16;138942;1198;108432;-76
2021/10/16 10:32:08;;;;;;;12.00;5.50;;;;;;;12.27;66.28;100571.16;138987;1191;106835;-77
2021/10/16 10:35:13;;;;;;;15.40;5.10;;;;;;;12.32;66.36;100565.43;139183;1190;108174;-78
2021/10/16 10:38:32;;;;;;;11.90;5.10;;;;;;;12.32;65.92;100563.42;139023;1192;108412;-75
2021/10/16 10:41:38;;;;;;;17.40;6.00;;;;;;;12.33;66.49;100563.46;139009;1182;108533;-77
2021/10/16 10:44:45;;;;;;;12.40;4.60;;;;;;;12.32;66.23;100562.39;138984;1190;108539;-75
2021/10/16 10:48:00;;;;;;;16.60;6.50;;;;;;;12.29;66.02;100557.88;139018;1182;108446;-75
2021/10/16 10:51:05;;;;;;;13.10;4.90;;;;;;;12.32;65.51;100561.38;138996;1192;108101;-77
2021/10/16 10:54:16;;;;;;;14.40;5.80;;;;;;;12.30;65.68;100556.36;138961;1182;108388;-76
2021/10/16 10:57:56;;;;;;;21.10;8.70;;;;;;;12.46;65.55;100558.30;139016;1193;108639;-75
2021/10/16 11:01:02;;;;;;;10.20;4.30;;;;;;;12.46;64.63;100558.27;139004;1191;108396;-76
2021/10/16 11:04:07;;;;;;;11.30;4.30;;;;;;;12.40;65.37;100560.87;138952;1190;108655;-74
2021/10/16 11:07:16;;;;;;;12.40;4.60;;;;;;;12.40;64.40;100561.77;138959;1176;108347;-75
2021/10/16 11:10:25;;;;;;;18.70;9.30;;;;;;;12.31;65.26;100560.23;138996;1190;108411;-74
2021/10/16 11:13:32;;;;;;;102.70;57.40;;;;;;;12.38;65.00;100560.50;138974;1190;107794;-77
2021/10/16 11:16:52;;;;;;;74.80;42.50;;;;;;;12.38;63.70;100556.64;138974;1193;109198;-81
2021/10/16 11:19:58;;;;;;;57.10;37.10;;;;;;;12.18;64.94;100557.37;139068;1183;108419;-82
2021/10/16 11:23:05;;;;;;;24.70;13.00;;;;;;;12.11;64.59;100560.41;139051;1190;108622;-80
2021/10/16 11:26:12;;;;;;;12.20;6.70;;;;;;;11.93;64.57;100559.04;139103;1190;107377;-79
2021/10/16 11:29:29;;;;;;;13.60;6.70;;;;;;;11.86;64.72;100557.92;139121;1183;108318;-84
2021/10/16 11:32:35;;;;;;;13.10;5.20;;;;;;;11.95;63.81;100559.90;139079;1193;108347;-81
2021/10/16 11:35:42;;;;;;;11.10;5.00;;;;;;;11.82;63.65;100560.92;139042;1193;108747;-84
2021/10/16 11:38:50;;;;;;;13.60;5.00;;;;;;;11.75;64.00;100560.27;139204;1191;108179;-81
2021/10/16 11:41:57;;;;;;;17.20;6.80;;;;;;;11.64;63.53;100556.52;139144;1198;108439;-84
2021/10/16 11:45:03;;;;;;;10.80;5.30;;;;;;;11.53;63.46;100556.70;139134;1190;108448;-81
2021/10/16 11:48:11;;;;;;;14.50;6.30;;;;;;;11.32;63.29;100556.33;139066;1193;108294;-83
2021/10/16 11:51:16;;;;;;;16.50;8.50;;;;;;;11.19;64.52;100557.75;139263;1190;108636;-76
2021/10/16 11:54:22;;;;;;;13.50;5.90;;;;;;;11.18;64.37;100558.58;139025;1193;107934;-79
2021/10/16 11:57:30;;;;;;;12.40;7.00;;;;;;;11.27;64.05;100547.16;139031;1182;108154;-76
2021/10/16 12:00:36;;;;;;;13.20;6.20;;;;;;;11.39;63.98;100546.33;139059;1190;108569;-79
2021/10/16 12:03:43;;;;;;;12.90;4.70;;;;;;;11.66;63.90;100546.35;139021;1191;108381;-72
2021/10/16 12:06:50;;;;;;;10.60;5.90;;;;;;;11.93;62.58;100539.59;139193;1198;108436;-72
2021/10/16 12:10:18;;;;;;;11.80;5.40;;;;;;;11.88;61.95;100534.35;139317;1191;108370;-70
2021/10/16 12:13:33;;;;;;;19.40;8.30;;;;;;;11.79;61.91;100535.44;139013;1193;108577;-71
2021/10/16 12:16:40;;;;;;;13.60;5.40;;;;;;;11.70;62.57;100540.23;138979;1191;108651;-73
2021/10/16 12:19:58;;;;;;;19.90;9.50;;;;;;;11.69;62.61;100537.62;139033;1193;108321;-73
2021/10/16 12:23:03;;;;;;;21.40;10.00;;;;;;;11.69;63.04;100536.96;138996;1198;108518;-72
2021/10/16 12:26:20;;;;;;;16.90;8.30;;;;;;;11.55;61.29;100540.69;139021;1192;109333;-72
2021/10/16 12:29:33;;;;;;;14.00;7.70;;;;;;;11.23;61.03;100536.20;139048;1193;107978;-72
2021/10/16 12:32:38;;;;;;;15.50;7.50;;;;;;;11.10;61.94;100545.40;139031;1193;108429;-71
2021/10/16 12:35:59;;;;;;;15.30;7.90;;;;;;;11.11;61.60;100545.02;138943;1198;108571;-72
2021/10/16 12:39:07;;;;;;;17.90;8.10;;;;;;;11.25;61.69;100540.06;139052;1193;108348;-75
2021/10/16 12:42:15;;;;;;;17.50;7.30;;;;;;;11.20;61.31;100541.10;138951;1190;106747;-71
2021/10/16 12:45:23;;;;;;;25.00;11.70;;;;;;;11.21;62.10;100532.78;138914;1194;108574;-72
2021/10/16 12:48:32;;;;;;;24.90;9.00;;;;;;;11.36;61.58;100534.67;139015;1190;108239;-72
2021/10/16 12:51:40;;;;;;;37.90;17.80;;;;;;;11.39;60.91;100533.11;139056;1190;108428;-72
2021/10/16 12:54:45;;;;;;;43.30;22.70;;;;;;;11.37;61.50;100528.73;139023;1191;108479;-69
2021/10/16 12:57:58;;;;;;;129.60;67.10;;;;;;;11.38;62.37;100522.54;138926;1196;107384;-73
2021/10/16 13:01:04;;;;;;;145.90;77.50;;;;;;;11.53;62.24;100527.45;139049;1190;108487;-81
2021/10/16 13:04:09;;;;;;;31.60;14.20;;;;;;;11.70;61.58;100524.23;139537;1190;108436;-82
2021/10/16 13:07:15;;;;;;;22.10;9.00;;;;;;;11.65;61.18;100525.02;139450;1190;108555;-78
2021/10/16 13:10:21;;;;;;;16.10;6.30;;;;;;;11.52;60.14;100533.10;139266;1190;108627;-82
2021/10/16 13:13:26;;;;;;;13.90;6.70;;;;;;;11.50;61.06;100533.01;139206;1190;108547;-82
2021/10/16 13:16:31;;;;;;;18.60;8.30;;;;;;;11.53;61.49;100534.24;139078;1190;108494;-81
2021/10/16 13:19:37;;;;;;;21.30;7.60;;;;;;;11.64;61.39;100532.83;139168;1190;108521;-79
2021/10/16 13:22:43;;;;;;;21.00;8.60;;;;;;;11.66;60.84;100531.55;139179;1192;108811;-78
2021/10/16 13:25:48;;;;;;;16.90;9.10;;;;;;;11.51;59.39;100535.55;139167;1190;108343;-77
2021/10/16 13:28:54;;;;;;;23.40;9.40;;;;;;;11.33;60.23;100535.03;139024;1190;108526;-79
2021/10/16 13:31:59;;;;;;;20.30;7.80;;;;;;;11.29;60.24;100531.15;139073;1196;108393;-79
2021/10/16 13:35:06;;;;;;;15.50;7.00;;;;;;;11.27;60.30;100536.14;139205;1198;108496;-75
2021/10/16 13:38:11;;;;;;;27.10;9.60;;;;;;;11.27;60.28;100535.72;139080;1191;108192;-76
2021/10/16 13:41:17;;;;;;;19.40;7.90;;;;;;;11.27;60.49;100535.08;139005;1198;108332;-75
2021/10/16 13:44:22;;;;;;;14.80;6.00;;;;;;;11.32;60.67;100540.09;139053;1190;109258;-77
2021/10/16 13:47:31;;;;;;;14.80;5.40;;;;;;;11.35;60.60;100541.70;139060;1193;108537;-76
2021/10/16 13:50:39;;;;;;;12.60;5.80;;;;;;;11.34;60.45;100545.59;138879;1192;109498;-77
2021/10/16 13:53:44;;;;;;;18.80;6.60;;;;;;;11.36;60.13;100548.42;139023;1190;108344;-75
2021/10/16 13:56:49;;;;;;;16.10;6.40;;;;;;;11.31;60.18;100551.08;140510;1190;108509;-79
2021/10/16 13:59:55;;;;;;;28.70;9.00;;;;;;;11.26;60.31;100553.69;139788;1171;108638;-81
2021/10/16 14:03:00;;;;;;;17.10;6.40;;;;;;;11.24;60.36;100549.29;140043;1192;108537;-78
2021/10/16 14:06:05;;;;;;;24.10;10.10;;;;;;;11.25;60.39;100556.49;139123;1192;108723;-75